Bookmark and Share
Track history (hours):
 

CCGS Samuel Risley (Canada)

Medium Navaids Tender - Light Icebreaker

Last reported at 2014-Apr-07 13:31 UTC. Time now 2014-Apr-18 00:27 UTC.
Position N 46°08' W 084°01'.
Warning: this ship's position is 10 days out of date.

Length 69.73 m; beam 13.7 m; draft 5.2 m.

Type: SAR. MMSI: 316001890.

NotesDate/timePositionNaut miles runAvg speedWind from/ knotsBaromVisibWave heightAir tempDewpointWater temp
2014-Apr-07 13:31N 46°08' W 084°01'6 0.6
2014-Apr-07 04:10N 46°03' W 083°57'0 0.2
2014-Apr-07 01:33N 46°03' W 083°57'  
2014-Apr-04 08:09N 42°35' W 079°56'13 1.7
2014-Apr-04 00:25N 42°44' W 079°43'910.5
2014-Apr-03 23:32N 42°43' W 079°56'8 7.7
2014-Apr-03 22:33N 42°47' W 080°05'8 8.0
2014-Apr-03 21:33N 42°39' W 080°01'4 3.4
2014-Apr-03 20:30N 42°37' W 079°57'1 1.0
2014-Apr-03 19:31N 42°38' W 079°58'9 9.6
2014-Apr-03 18:33N 42°46' W 080°04'1 1.2
2014-Apr-03 17:30N 42°47' W 080°05'0 0.0
2014-Apr-03 16:30N 42°47' W 080°05'0 0.0
2014-Apr-03 15:30N 42°47' W 080°05'0 0.0
2014-Apr-03 14:30N 42°47' W 080°05'0 0.0
2014-Apr-03 13:24N 42°47' W 080°05'0 0.0
2014-Apr-03 12:30N 42°47' W 080°05'0 0.0
2014-Apr-03 11:30N 42°47' W 080°05'0 0.0
2014-Apr-03 10:30N 42°47' W 080°05'0 0.0
2014-Apr-03 09:30N 42°47' W 080°05'0 0.0
2014-Apr-03 08:33N 42°47' W 080°05'0 0.0
2014-Apr-03 07:30N 42°47' W 080°05'0 0.0
2014-Apr-03 06:30N 42°47' W 080°05'0 0.0
2014-Apr-03 05:30N 42°47' W 080°05'0 0.0
2014-Apr-03 04:30N 42°47' W 080°05'0 0.0
2014-Apr-03 03:30N 42°47' W 080°05'0 0.0
2014-Apr-03 02:30N 42°47' W 080°05'0 0.0
2014-Apr-03 01:30N 42°47' W 080°05'0 0.0
2014-Apr-03 00:30N 42°47' W 080°05'0 0.0
2014-Apr-02 23:30N 42°47' W 080°05'0 0.0
2014-Apr-02 22:30N 42°47' W 080°05'0 0.0
2014-Apr-02 21:33N 42°47' W 080°05'6 6.1
2014-Apr-02 20:33N 42°43' W 080°11'2 2.1
2014-Apr-02 19:34N 42°41' W 080°11'1 1.1
2014-Apr-02 18:33N 42°42' W 080°11'9 9.3
2014-Apr-02 17:33N 42°37' W 079°60'3 2.0
2014-Apr-02 16:06N 42°34' W 079°58'1 1.0
2014-Apr-02 15:33N 42°35' W 079°59'7 7.2
2014-Apr-02 14:34N 42°41' W 080°04'4 3.8
2014-Apr-02 13:33N 42°44' W 080°06'3 2.6
2014-Apr-02 12:32N 42°47' W 080°05'0 0.0
2014-Apr-02 11:32N 42°47' W 080°05'0 0.0
2014-Apr-02 10:32N 42°47' W 080°05'0 0.0
2014-Apr-02 09:32N 42°47' W 080°05'0 0.0
2014-Apr-02 08:32N 42°47' W 080°05'0 0.0
2014-Apr-02 07:29N 42°47' W 080°05'0 0.0
2014-Apr-02 06:29N 42°47' W 080°05'0 0.0
2014-Apr-02 05:26N 42°47' W 080°05'0 0.0
2014-Apr-02 04:32N 42°47' W 080°05'0 0.0
2014-Apr-02 03:32N 42°47' W 080°05'0 0.0
2014-Apr-02 02:32N 42°47' W 080°05'0 0.0
2014-Apr-02 01:32N 42°47' W 080°05'0 0.0
2014-Apr-02 00:32N 42°47' W 080°05'0 0.0
2014-Apr-01 23:32N 42°47' W 080°05'0 0.0
2014-Apr-01 22:32N 42°47' W 080°05'0 0.0
2014-Apr-01 21:29N 42°47' W 080°05'0 0.0
2014-Apr-01 20:26N 42°47' W 080°05'0 0.0
2014-Apr-01 19:23N 42°47' W 080°05'0 0.0
2014-Apr-01 18:26N 42°47' W 080°05'0 0.0
2014-Apr-01 17:29N 42°47' W 080°05'0 0.0
2014-Apr-01 16:26N 42°47' W 080°05'0 0.0
2014-Apr-01 15:23N 42°47' W 080°05'0 0.0
2014-Apr-01 14:26N 42°47' W 080°05'0 0.0
2014-Apr-01 13:32N 42°47' W 080°05'0 0.0
2014-Apr-01 12:32N 42°47' W 080°05'0 0.0
2014-Apr-01 11:29N 42°47' W 080°05'0 0.0
2014-Apr-01 10:29N 42°47' W 080°05'0 0.0
2014-Apr-01 09:32N 42°47' W 080°05'0 0.0
2014-Apr-01 08:29N 42°47' W 080°05'0 0.0
2014-Apr-01 07:29N 42°47' W 080°05'0 0.0
2014-Apr-01 06:29N 42°47' W 080°05'0 0.0
2014-Apr-01 05:32N 42°47' W 080°05'0 0.0
2014-Apr-01 04:29N 42°47' W 080°05'0 0.0
2014-Apr-01 03:32N 42°47' W 080°05'0 0.0
2014-Apr-01 02:29N 42°47' W 080°05'0 0.0
2014-Apr-01 01:29N 42°47' W 080°05'0 0.0
2014-Apr-01 00:29N 42°47' W 080°05'0 0.0
2014-Mar-31 23:32N 42°47' W 080°05'0 0.0
2014-Mar-31 22:32N 42°47' W 080°05'0 0.0
2014-Mar-31 21:29N 42°47' W 080°05'0 0.0
2014-Mar-31 20:26N 42°47' W 080°05'0 0.0
2014-Mar-31 19:33N 42°47' W 080°05'0 0.1
2014-Mar-31 18:33N 42°47' W 080°05'0 0.0
2014-Mar-31 17:33N 42°47' W 080°05'9 8.0
2014-Mar-31 16:23N 42°44' W 079°53'8 7.8
2014-Mar-31 15:23N 42°37' W 079°49'0 0.1
2014-Mar-31 11:33N 42°36' W 079°49'0 0.1
2014-Mar-31 06:25N 42°36' W 079°50'11 0.6
2014-Mar-30 11:06N 42°44' W 079°40'2 0.1
2014-Mar-29 21:33N 42°46' W 079°42'8 7.7
2014-Mar-29 20:33N 42°44' W 079°52'9 9.0
2014-Mar-29 19:33N 42°46' W 080°04'2 1.8
2014-Mar-29 18:33N 42°47' W 080°02'1 0.5
2014-Mar-29 17:30N 42°48' W 080°03'1 0.5
2014-Mar-29 16:33N 42°47' W 080°02'0 0.5
2014-Mar-29 15:34N 42°48' W 080°03'9 8.8
2014-Mar-29 14:33N 42°39' W 080°04'1110.6
2014-Mar-29 13:33N 42°29' W 080°00'7 5.5
2014-Mar-29 12:13N 42°24' W 080°08'  

Dump ship's entire track history

sailing weather and tide predictions

CCGS Samuel Risley — CG2960 — position and weather